Flight Track Log - Related Links

Times and Time Zones

All times are in EDT time to prevent confusion due to time zone crossing. See the N726AG flight status page for this flight to view local times or setup timezone preferences in your user account.

Time Position Orientation Groundspeed Altitude Reporting Facility
EDT Latitude Longitude Course Direction KTS MPH feet Rate Location/Type
Wed 04:30:00 PM 39.4500 -77.2500 30° Northeast 210 242 3,100  Level Potomac TRACON
Wed 04:31:06 PM 39.4667 -77.1667 75° East 227 261 5,300 2,762 Climbing Potomac TRACON
Wed 04:32:06 PM 39.4667 -77.0667 90° East 240 276 8,900 2,800 Climbing Potomac TRACON
Wed 04:33:06 PM 39.4833 -76.9833 75° East 287 330 10,900 1,043 Climbing Potomac TRACON
Wed 04:34:01 PM 39.4833 -76.8833 90° East 327 376 10,900  Level Potomac TRACON
Wed 04:35:00 PM 40.4198 -76.5983 30° Northeast  Level Estimated
Wed 04:35:07 PM 39.4667 -76.7500 99° East 334 384 10,900  Level Potomac TRACON
Wed 04:36:01 PM 39.4167 -76.6667 128° Southeast 337 388 10,900 53 Level Potomac TRACON
Wed 04:37:01 PM 39.3500 -76.5833 136° Southeast 340 391 11,000  Climbing Potomac TRACON
Wed 04:38:01 PM 39.3000 -76.4833 123° Southeast 325 374 10,900 -48 Descending Potomac TRACON
Wed 04:39:07 PM 39.2167 -76.4167 148° Southeast 301 346 10,900  Level Potomac TRACON
Wed 04:40:54 PM 39.0922 -76.3697 164° South 329 379 10,900 400 Level Washington Center
Wed 04:41:52 PM 39.0908 -76.2603 91° East 255 293 12,000 1,220 Climbing Washington Center
Wed 04:42:52 PM 39.1267 -76.1428 69° East 267 307 13,300 1,488 Climbing Washington Center
Wed 04:43:53 PM 39.1564 -76.0253 72° East 304 350 15,000 1,770 Climbing Washington Center
Wed 04:44:54 PM 39.1839 -75.9050 74° East 321 369 16,900 1,765 Climbing Washington Center
Wed 04:45:52 PM 39.2467 -75.8086 50° Northeast 343 395 18,500 1,563 Climbing Washington Center
Wed 04:46:53 PM 39.3156 -75.7203 45° Northeast 343 395 20,000 1,475 Climbing Washington Center
Wed 04:47:54 PM 39.3886 -75.6264 45° Northeast 350 403 21,500 1,462 Climbing Washington Center
Wed 04:48:52 PM 39.4614 -75.5350 44° Northeast 355 409 22,900 1,322 Climbing Washington Center
Wed 04:49:52 PM 39.5383 -75.4356 45° Northeast 366 421 24,100 1,388 Climbing Washington Center
Wed 04:50:53 PM 39.6175 -75.3303 46° Northeast 384 442 25,700 1,820 Climbing Washington Center
Wed 04:51:54 PM 39.6922 -75.2328 45° Northeast 384 442 27,800 2,132 Climbing Washington Center
Wed 04:52:54 PM 39.7772 -75.1189 46° Northeast 386 444 30,000 1,540 Climbing Washington Center
Wed 04:55:01 PM 39.9372 -74.8967 47° Northeast 417 480 32,600 1,277 Climbing New York Center
Wed 04:56:02 PM 40.0250 -74.7664 49° Northeast 434 499 34,000 1,180 Climbing New York Center
Wed 04:57:03 PM 40.1064 -74.6408 50° Northeast 439 505 35,000 496 Climbing New York Center
Wed 04:58:03 PM 40.1983 -74.5075 48° Northeast 470 541 35,000  Level New York Center
Wed 04:59:01 PM 40.2864 -74.4169 38° Northeast 483 556 35,000  Level New York Center
Wed 05:00:01 PM 40.4111 -74.3636 18° North 467 537 35,000  Level New York Center
Wed 05:01:01 PM 40.5625 -74.3222 12° North 456 525 35,000  Level New York Center
Wed 05:02:02 PM 40.6864 -74.2878 12° North 461 531 35,000  Level New York Center
Wed 05:04:30 PM 40.9967 -74.2028 12° North 453 521 35,000  Level Boston Center
Wed 05:05:30 PM 41.1200 -74.1678 12° North 448 516 35,000  Level Boston Center
Wed 05:06:30 PM 41.2267 -74.1403 11° North 448 516 35,000  Level Boston Center
Wed 05:07:30 PM 41.3586 -74.0967 14° North 443 510 35,000  Level Boston Center
Wed 05:08:30 PM 41.4800 -74.0611 12° North 443 510 35,000  Level Boston Center
Wed 05:09:30 PM 41.5908 -74.0333 11° North 443 510 35,000 -350 Level Boston Center
Wed 05:10:30 PM 41.7122 -73.9975 12° North 443 510 34,300 -900 Descending Boston Center
Wed 05:11:30 PM 41.8275 -73.9639 12° North 435 501 33,200 -650 Descending Boston Center
Wed 05:12:30 PM 41.9467 -73.9306 12° North 429 494 33,000 -100 Descending Boston Center
Wed 05:13:30 PM 42.0681 -73.8972 12° North 435 501 33,000  Level Boston Center
Wed 05:14:30 PM 42.1872 -73.8606 13° North 435 501 33,000 -200 Level Boston Center
Wed 05:15:30 PM 42.3044 -73.8239 13° North 429 494 32,600 -850 Descending Boston Center
Wed 05:16:30 PM 42.4194 -73.7928 11° North 429 494 31,300 -800 Descending Boston Center
Wed 05:17:30 PM 42.5325 -73.7586 13° North 424 488 31,000 -150 Descending Boston Center
Wed 05:18:30 PM 42.6453 -73.7186 15° North 419 482 31,000  Level Boston Center
Wed 05:19:30 PM 42.7644 -73.6872 11° North 419 482 31,000  Level Boston Center
Wed 05:20:30 PM 42.8775 -73.6500 14° North 419 482 31,000  Level Boston Center
Wed 05:21:30 PM 42.9903 -73.6153 13° North 413 475 31,000 -300 Level Boston Center
Wed 05:22:30 PM 43.1178 -73.5778 12° North 413 475 30,400 -1,150 Descending Boston Center
Wed 05:23:30 PM 43.2183 -73.5428 14° North 413 475 28,700 -1,850 Descending Boston Center
Wed 05:24:30 PM 43.3247 -73.5131 11° North 413 475 26,700 -2,050 Descending Boston Center
Wed 05:25:30 PM 43.4314 -73.4808 12° North 399 459 24,600 -2,200 Descending Boston Center
Wed 05:26:30 PM 43.5317 -73.4481 13° North 383 441 22,300 -2,300 Descending Boston Center
Wed 05:27:30 PM 43.6300 -73.4183 12° North 366 421 20,000 -2,400 Descending Boston Center
Wed 05:28:30 PM 43.7322 -73.3883 12° North 349 402 17,500 -2,400 Descending Boston Center
Wed 05:29:30 PM 43.8222 -73.3608 12° North 336 387 15,200 -2,300 Descending Boston Center
Wed 05:30:30 PM 43.9100 -73.3333 13° North 324 373 12,900 -2,091 Descending Boston Center
Wed 05:31:42 PM 43.9914 -73.2942 19° North 314 361 10,600 -2,227 Descending Boston Center
Wed 05:32:42 PM 44.0833 -73.2581 16° North 293 337 8,000 -2,450 Descending Boston Center
Wed 05:33:42 PM 44.1464 -73.2067 30° Northeast 266 306 5,700 -1,500 Descending Boston Center
Wed 05:34:42 PM 44.1925 -73.1581 37° Northeast 242 278 5,000 -450 Descending Boston Center
Wed 05:35:42 PM 44.2364 -73.1122 37° Northeast 204 235 4,800 -450 Descending Boston Center
Wed 05:36:42 PM 44.2783 -73.0694 36° Northeast 186 214 4,100 -600 Descending Boston Center
Wed 05:37:42 PM 44.3264 -73.0611 North 172 198 3,600 -750 Descending Boston Center
Wed 05:38:42 PM 44.3783 -73.0761 348° North 178 205 2,600 -1,050 Descending Boston Center
Wed 05:39:42 PM 44.4281 -73.1028 339° North 184 212 1,500 -1,000 Descending Boston Center
Wed 05:40:42 PM 44.4592 -73.1381 321° Northwest 155 178 600 -550 Descending Boston Center
Wed 05:41:42 PM 44.4778 -73.1586 322° Northwest 134 154 400 -100 Descending Boston Center
Wed 05:42:42 PM 44.4758 -73.1586 180° South 55 63 400  Level Boston Center
Wed 05:44:00 PM 44.4667 -73.1500 10° North  Level FlightAware Approximate
Wed 05:51:00 PM 44.4719 -73.1533 10° North  Level Estimated

Login

Don't have an account? Register now (free) for customized features, flight alerts, and more!